JUR weather

Jurien Bay Airport
Western Australia, Australia

Public forecast

Using degrees Celsius for public forecast. Weather courtesy of forecast.io.

METAR (pilot weather report)

Closest report is Geraldton Airport, 92.2 nm (170.8 km) NNW. Retrieved 2019/03/24 15:00 UTC (8 minutes ago):

YGEL 241500Z AUTO 14012KT 9999 // NCD 18/12 Q1013

TAF (pilot weather forecast)

Closest forecast is Geraldton Airport, 92.2 nm (170.8 km) NNW. Retrieved 2019/03/24 12:00 UTC (3 hours ago):

TAF YGEL 241033Z 2412/2506 18020KT CAVOK FM241300 14014KT CAVOK FM242000 11010KT CAVOK FM250200 09018KT CAVOK